createdAt,value
2023-04-25T00:00:00.888Z,8.90
2023-04-25T00:02:49.503Z,8.83
2023-04-25T00:05:38.843Z,8.86
2023-04-25T00:08:27.380Z,8.82
2023-04-25T00:11:15.866Z,8.76
2023-04-25T00:14:07.542Z,8.74
2023-04-25T00:16:56.179Z,8.77
2023-04-25T00:19:45.634Z,8.71
2023-04-25T00:22:35.657Z,8.69
2023-04-25T00:25:24.449Z,8.68
2023-04-25T00:28:13.013Z,8.62
2023-04-25T00:31:02.967Z,8.68
2023-04-25T00:33:51.814Z,8.65
2023-04-25T00:36:40.694Z,8.46
2023-04-25T00:39:29.266Z,8.72
2023-04-25T00:42:18.213Z,8.75
2023-04-25T00:45:09.115Z,8.77
2023-04-25T00:47:59.238Z,8.55
2023-04-25T00:50:53.993Z,8.86
2023-04-25T00:53:42.430Z,8.85
2023-04-25T00:56:31.181Z,8.88
2023-04-25T00:59:20.533Z,8.96
2023-04-25T01:02:10.304Z,9.00
2023-04-25T01:05:00.291Z,9.07
2023-04-25T01:07:49.253Z,9.10
2023-04-25T01:10:38.012Z,9.13
2023-04-25T01:13:26.484Z,9.15
2023-04-25T01:16:15.120Z,9.18
2023-04-25T01:19:03.748Z,9.22
2023-04-25T01:21:53.814Z,9.24
2023-04-25T01:24:42.621Z,9.02
2023-04-25T01:27:31.428Z,9.32
2023-04-25T01:30:20.090Z,9.34
2023-04-25T01:33:10.385Z,9.33
2023-04-25T01:35:58.821Z,9.37
2023-04-25T01:38:48.966Z,9.34
2023-04-25T01:41:37.538Z,9.45
2023-04-25T01:44:26.392Z,9.49
2023-04-25T01:47:14.831Z,9.44
2023-04-25T01:50:03.299Z,9.51
2023-04-25T01:52:51.733Z,9.51
2023-04-25T01:55:41.575Z,9.42
2023-04-25T01:58:30.040Z,9.41
2023-04-25T02:01:18.567Z,9.45
2023-04-25T02:04:07.370Z,9.38
2023-04-25T02:06:55.995Z,9.41
2023-04-25T02:09:44.411Z,9.40
2023-04-25T02:12:34.296Z,9.44
2023-04-25T02:15:22.918Z,9.44
2023-04-25T02:18:12.159Z,9.44
2023-04-25T02:21:02.036Z,9.42
2023-04-25T02:23:53.193Z,9.42
2023-04-25T02:26:41.833Z,9.36
2023-04-25T02:29:31.753Z,9.42
2023-04-25T02:32:20.334Z,9.39
2023-04-25T02:35:09.624Z,9.42
2023-04-25T02:37:58.072Z,9.40
2023-04-25T02:40:46.680Z,9.37
2023-04-25T02:43:35.079Z,9.35
2023-04-25T02:46:37.876Z,9.31
2023-04-25T02:49:27.669Z,9.06
2023-04-25T02:52:16.099Z,9.26
2023-04-25T02:55:04.789Z,9.23
2023-04-25T02:57:53.219Z,9.13
2023-04-25T03:00:41.737Z,9.22
2023-04-25T03:03:31.745Z,9.19
2023-04-25T03:06:20.244Z,9.18
2023-04-25T03:09:08.699Z,9.16
2023-04-25T03:11:57.144Z,9.17
2023-04-25T03:14:45.615Z,8.77
2023-04-25T03:17:34.213Z,9.17
2023-04-25T03:20:24.125Z,9.11
2023-04-25T03:23:12.622Z,9.08
2023-04-25T03:26:01.503Z,9.07
2023-04-25T03:28:49.932Z,9.03
2023-04-25T03:31:38.369Z,8.99
2023-04-25T03:34:27.008Z,8.95
2023-04-25T03:37:16.854Z,8.99
2023-04-25T03:40:06.344Z,8.93
2023-04-25T03:42:54.835Z,8.95
2023-04-25T03:45:43.532Z,8.98
2023-04-25T03:48:32.043Z,9.04
2023-04-25T03:51:20.513Z,8.98
2023-04-25T03:54:10.321Z,9.00
2023-04-25T03:56:58.811Z,8.92
2023-04-25T03:59:47.270Z,8.97
2023-04-25T04:02:37.443Z,8.92
2023-04-25T04:05:26.242Z,8.91
2023-04-25T04:08:14.726Z,8.92
2023-04-25T04:11:04.712Z,8.93
2023-04-25T04:13:53.528Z,8.96
2023-04-25T04:16:42.049Z,8.93
2023-04-25T04:19:30.501Z,8.94
2023-04-25T04:22:19.014Z,8.99
2023-04-25T04:25:10.378Z,9.02
2023-04-25T04:28:01.887Z,9.06
2023-04-25T04:30:52.166Z,9.04
2023-04-25T04:33:40.731Z,9.03
2023-04-25T04:36:29.168Z,9.03
2023-04-25T04:39:17.716Z,8.99
2023-04-25T04:42:07.663Z,9.03
2023-04-25T04:44:57.462Z,9.01
2023-04-25T04:47:46.818Z,9.03
2023-04-25T04:50:36.556Z,9.04
2023-04-25T04:53:25.456Z,8.97
2023-04-25T04:56:13.920Z,9.06
2023-04-25T04:59:02.854Z,9.09
2023-04-25T05:01:54.568Z,9.07
2023-04-25T05:04:43.068Z,9.12
2023-04-25T05:07:31.739Z,9.15
2023-04-25T05:10:21.164Z,8.65
2023-04-25T05:13:09.648Z,9.34
2023-04-25T05:15:58.152Z,9.37
2023-04-25T05:18:48.055Z,9.52
2023-04-25T05:21:36.517Z,9.34
2023-04-25T05:24:25.073Z,9.34
2023-04-25T05:27:13.644Z,9.29
2023-04-25T05:30:02.111Z,9.36
2023-04-25T05:32:51.418Z,9.40
2023-04-25T05:35:41.317Z,9.41
2023-04-25T05:38:31.898Z,9.42
2023-04-25T05:41:22.012Z,9.46
2023-04-25T05:44:10.786Z,9.46
2023-04-25T05:46:59.335Z,9.56
2023-04-25T05:49:47.771Z,9.59
2023-04-25T05:52:37.575Z,9.75
2023-04-25T05:55:26.184Z,9.78
2023-04-25T05:58:14.770Z,9.54
2023-04-25T06:01:03.731Z,9.93
2023-04-25T06:03:53.954Z,9.90
2023-04-25T06:06:42.798Z,9.95
2023-04-25T06:09:32.600Z,9.90
2023-04-25T06:12:21.162Z,9.90
2023-04-25T06:15:24.568Z,9.91
2023-04-25T06:18:16.805Z,9.91
2023-04-25T06:21:05.652Z,9.89
2023-04-25T06:23:54.373Z,9.93
2023-04-25T06:26:44.338Z,9.96
2023-04-25T06:29:32.843Z,9.58
2023-04-25T06:32:21.254Z,9.93
2023-04-25T06:35:11.173Z,9.92
2023-04-25T06:37:59.598Z,9.93
2023-04-25T06:40:48.191Z,9.89
2023-04-25T06:43:37.959Z,9.97
2023-04-25T06:46:26.491Z,9.87
2023-04-25T06:49:15.130Z,9.88
2023-04-25T06:52:03.870Z,9.87
2023-04-25T06:54:52.363Z,9.67
2023-04-25T06:57:40.846Z,9.62
2023-04-25T07:00:31.309Z,9.52
2023-04-25T07:03:20.315Z,9.65
2023-04-25T07:06:09.129Z,9.55
2023-04-25T07:08:57.617Z,9.67
2023-04-25T07:11:46.076Z,9.80
2023-04-25T07:14:34.561Z,9.76
2023-04-25T07:17:24.427Z,9.73
2023-04-25T07:20:13.204Z,9.70
2023-04-25T07:23:01.688Z,9.64
2023-04-25T07:25:50.156Z,9.66
2023-04-25T07:28:38.617Z,9.67
2023-04-25T07:31:27.202Z,9.67
2023-04-25T07:34:17.615Z,9.69
2023-04-25T07:37:06.165Z,9.70
2023-04-25T07:39:54.650Z,9.72
2023-04-25T07:42:43.146Z,9.80
2023-04-25T07:45:31.654Z,9.72
2023-04-25T07:48:20.754Z,9.65
2023-04-25T07:51:10.603Z,9.63
2023-04-25T07:53:59.095Z,9.70
2023-04-25T07:56:52.756Z,9.58
2023-04-25T07:59:41.667Z,9.72
2023-04-25T08:02:30.259Z,9.84
2023-04-25T08:05:21.451Z,9.94
2023-04-25T08:08:12.689Z,9.91
2023-04-25T08:11:01.183Z,9.94
2023-04-25T08:13:49.649Z,9.91
2023-04-25T08:16:38.152Z,9.91
2023-04-25T08:19:26.720Z,10.00
2023-04-25T08:22:15.797Z,10.02
2023-04-25T08:25:06.645Z,9.97
2023-04-25T08:27:55.158Z,10.00
2023-04-25T08:30:43.864Z,10.02
2023-04-25T08:33:33.775Z,10.01
2023-04-25T08:36:35.550Z,9.96
2023-04-25T08:39:27.214Z,10.01
2023-04-25T08:42:17.331Z,10.09
2023-04-25T08:45:07.489Z,9.75
2023-04-25T08:47:57.911Z,9.90
2023-04-25T08:50:52.369Z,10.06
2023-04-25T08:53:43.738Z,10.05
2023-04-25T08:56:35.905Z,9.99
2023-04-25T08:59:26.318Z,10.09
2023-04-25T09:02:17.625Z,10.09
2023-04-25T09:05:07.608Z,10.08
2023-04-25T09:07:57.405Z,10.14
2023-04-25T09:10:45.880Z,10.11
2023-04-25T09:13:34.426Z,10.04
2023-04-25T09:16:24.296Z,10.14
2023-04-25T09:19:31.967Z,10.10
2023-04-25T09:22:27.098Z,10.03
2023-04-25T09:25:16.034Z,9.60
2023-04-25T09:28:06.542Z,9.52
2023-04-25T09:30:57.450Z,8.91
2023-04-25T09:33:47.614Z,8.92
2023-04-25T09:36:36.848Z,8.76
2023-04-25T09:39:26.789Z,8.67
2023-04-25T09:42:15.812Z,8.58
2023-04-25T09:45:05.805Z,8.52
2023-04-25T09:47:59.141Z,8.48
2023-04-25T09:51:06.111Z,8.43
2023-04-25T09:53:54.639Z,8.50
2023-04-25T09:56:43.486Z,8.53
2023-04-25T09:59:32.586Z,8.56
2023-04-25T10:02:22.788Z,8.58
2023-04-25T10:05:12.861Z,8.60
2023-04-25T10:08:05.175Z,8.57
2023-04-25T10:10:53.684Z,8.50
2023-04-25T10:13:42.631Z,8.46
2023-04-25T10:16:31.937Z,8.47
2023-04-25T10:19:20.696Z,8.52
2023-04-25T10:22:12.810Z,8.49
2023-04-25T10:25:04.888Z,8.47
2023-04-25T10:27:53.640Z,8.27
2023-04-25T10:30:59.329Z,7.93
2023-04-25T10:33:47.845Z,8.49
2023-04-25T10:36:38.396Z,8.55
2023-04-25T10:39:29.291Z,8.56
2023-04-25T10:42:19.660Z,8.60
2023-04-25T10:45:09.389Z,8.77
2023-04-25T10:47:57.900Z,8.91
2023-04-25T10:50:46.396Z,8.94
2023-04-25T10:53:35.691Z,9.16
2023-04-25T10:56:25.050Z,8.99
2023-04-25T10:59:16.758Z,9.02
2023-04-25T11:02:13.743Z,9.02
2023-04-25T11:05:02.473Z,9.02
2023-04-25T11:08:03.870Z,9.06
2023-04-25T11:10:52.855Z,9.04
2023-04-25T11:13:41.359Z,9.00
2023-04-25T11:16:32.145Z,8.97
2023-04-25T11:19:21.502Z,8.96
2023-04-25T11:22:10.195Z,9.03
2023-04-25T11:24:58.692Z,9.00
2023-04-25T11:27:53.720Z,9.00
2023-04-25T11:30:42.607Z,8.99
2023-04-25T11:33:32.529Z,9.03
2023-04-25T11:36:21.062Z,9.20
2023-04-25T11:39:10.065Z,9.22
2023-04-25T11:41:59.429Z,9.34
2023-04-25T11:44:50.179Z,9.56
2023-04-25T11:47:39.211Z,9.48
2023-04-25T11:50:30.317Z,9.28
2023-04-25T11:53:19.900Z,9.52
2023-04-25T11:56:11.582Z,9.68
2023-04-25T11:59:01.763Z,9.68
2023-04-25T12:01:51.257Z,9.38
2023-04-25T12:04:39.935Z,9.85
2023-04-25T12:07:32.261Z,9.91
2023-04-25T12:10:21.378Z,9.91
2023-04-25T12:13:22.964Z,9.93
2023-04-25T12:16:11.466Z,9.93
2023-04-25T12:19:01.041Z,9.88
2023-04-25T12:21:58.032Z,9.98
2023-04-25T12:24:49.185Z,9.92
2023-04-25T12:27:38.087Z,9.84
2023-04-25T12:30:26.578Z,9.82
2023-04-25T12:33:15.115Z,9.83
2023-04-25T12:36:09.444Z,9.88
2023-04-25T12:38:57.963Z,10.00
2023-04-25T12:41:48.740Z,10.12
2023-04-25T12:44:37.271Z,10.16
2023-04-25T12:47:25.976Z,10.27
2023-04-25T12:50:14.472Z,10.30
2023-04-25T12:53:02.908Z,10.47
2023-04-25T12:55:51.606Z,10.59
2023-04-25T12:58:41.487Z,10.62
2023-04-25T13:01:30.152Z,10.66
2023-04-25T13:04:18.807Z,10.64
2023-04-25T13:07:07.605Z,10.53
2023-04-25T13:09:56.760Z,10.42
2023-04-25T13:12:45.250Z,10.39
2023-04-25T13:15:35.097Z,10.35
2023-04-25T13:18:27.255Z,10.36
2023-04-25T13:21:15.825Z,10.50
2023-04-25T13:24:04.753Z,10.66
2023-04-25T13:26:53.249Z,10.71
2023-04-25T13:29:42.582Z,10.78
2023-04-25T13:32:32.457Z,10.86
2023-04-25T13:35:20.942Z,10.81
2023-04-25T13:38:09.874Z,10.85
2023-04-25T13:40:58.543Z,10.86
2023-04-25T13:43:49.364Z,10.82
2023-04-25T13:46:46.263Z,10.88
2023-04-25T13:49:37.438Z,11.14
2023-04-25T13:52:26.808Z,11.24
2023-04-25T13:55:15.306Z,11.27
2023-04-25T13:58:08.274Z,11.46
2023-04-25T14:00:57.156Z,11.67
2023-04-25T14:03:45.724Z,11.70
2023-04-25T14:06:36.458Z,11.91
2023-04-25T14:09:26.634Z,12.02
2023-04-25T14:12:15.378Z,12.16
2023-04-25T14:15:04.337Z,12.18
2023-04-25T14:17:52.862Z,12.02
2023-04-25T14:20:41.402Z,11.87
2023-04-25T14:23:31.203Z,11.69
2023-04-25T14:26:19.748Z,11.80
2023-04-25T14:29:09.576Z,11.82
2023-04-25T14:31:58.756Z,11.79
2023-04-25T14:34:47.197Z,11.70
2023-04-25T14:37:35.718Z,11.60
2023-04-25T14:40:25.715Z,11.68
2023-04-25T14:43:14.190Z,11.84
2023-04-25T14:46:03.076Z,11.86
2023-04-25T14:48:51.742Z,11.88
2023-04-25T14:51:40.248Z,11.87
2023-04-25T14:54:28.678Z,11.87
2023-04-25T14:57:18.873Z,11.86
2023-04-25T15:00:10.483Z,11.80
2023-04-25T15:02:59.477Z,11.76
2023-04-25T15:05:48.126Z,11.82
2023-04-25T15:08:37.140Z,11.89
2023-04-25T15:11:25.778Z,11.89
2023-04-25T15:14:15.882Z,11.90
2023-04-25T15:17:04.422Z,11.76
2023-04-25T15:19:53.036Z,11.98
2023-04-25T15:22:42.906Z,12.05
2023-04-25T15:25:31.415Z,11.99
2023-04-25T15:28:22.476Z,11.99
2023-04-25T15:31:12.517Z,11.90
2023-04-25T15:34:01.511Z,11.79
2023-04-25T15:36:50.016Z,11.77
2023-04-25T15:39:38.606Z,11.73
2023-04-25T15:42:27.107Z,11.68
2023-04-25T15:45:17.881Z,11.66
2023-04-25T15:48:08.564Z,11.66
2023-04-25T15:50:57.202Z,11.61
2023-04-25T15:53:45.776Z,11.37
2023-04-25T15:56:34.466Z,11.47
2023-04-25T15:59:23.324Z,11.46
2023-04-25T16:02:11.908Z,11.34
2023-04-25T16:05:02.137Z,11.33
2023-04-25T16:07:53.647Z,11.15
2023-04-25T16:10:42.975Z,10.82
2023-04-25T16:13:33.621Z,10.30
2023-04-25T16:16:22.146Z,9.82
2023-04-25T16:19:10.777Z,9.70
2023-04-25T16:22:01.676Z,9.32
2023-04-25T16:24:50.187Z,9.24
2023-04-25T16:27:39.346Z,9.17
2023-04-25T16:30:27.876Z,9.12
2023-04-25T16:33:16.689Z,9.14
2023-04-25T16:36:05.793Z,8.96
2023-04-25T16:38:55.786Z,8.92
2023-04-25T16:41:44.295Z,8.83
2023-04-25T16:44:32.788Z,9.01
2023-04-25T16:47:21.381Z,9.17
2023-04-25T16:50:10.481Z,9.18
2023-04-25T16:52:58.967Z,9.28
2023-04-25T16:55:48.799Z,9.32
2023-04-25T16:58:37.443Z,9.21
2023-04-25T17:01:26.100Z,9.00
2023-04-25T17:04:14.899Z,8.86
2023-04-25T17:07:03.501Z,8.86
2023-04-25T17:09:51.986Z,8.86
2023-04-25T17:12:41.858Z,8.85
2023-04-25T17:15:31.479Z,8.86
2023-04-25T17:18:22.662Z,8.82
2023-04-25T17:21:13.011Z,8.74
2023-04-25T17:24:01.530Z,8.75
2023-04-25T17:26:50.031Z,8.80
2023-04-25T17:29:39.947Z,8.84
2023-04-25T17:32:28.548Z,8.85
2023-04-25T17:35:17.140Z,8.72
2023-04-25T17:38:05.594Z,8.88
2023-04-25T17:40:54.316Z,8.82
2023-04-25T17:43:42.858Z,8.92
2023-04-25T17:46:33.052Z,8.89
2023-04-25T17:49:21.613Z,8.87
2023-04-25T17:52:10.154Z,8.69
2023-04-25T17:54:58.697Z,8.91
2023-04-25T17:57:47.188Z,8.93
2023-04-25T18:00:35.882Z,8.95
2023-04-25T18:03:26.247Z,9.01
2023-04-25T18:06:15.746Z,8.95
2023-04-25T18:09:15.816Z,8.96
2023-04-25T18:12:04.571Z,8.92
2023-04-25T18:14:53.094Z,8.81
2023-04-25T18:17:41.709Z,8.82
2023-04-25T18:20:31.669Z,8.77
2023-04-25T18:23:20.168Z,8.63
2023-04-25T18:26:08.963Z,8.62
2023-04-25T18:28:57.443Z,8.52
2023-04-25T18:31:47.694Z,8.41
2023-04-25T18:34:38.116Z,8.24
2023-04-25T18:37:28.804Z,8.30
2023-04-25T18:40:17.458Z,8.36
2023-04-25T18:43:05.915Z,8.50
2023-04-25T18:45:54.387Z,8.52
2023-04-25T18:48:43.054Z,8.47
2023-04-25T18:51:32.189Z,8.47
2023-04-25T18:54:22.189Z,8.49
2023-04-25T18:57:14.175Z,8.37
2023-04-25T19:00:05.325Z,8.43
2023-04-25T19:02:56.001Z,8.47
2023-04-25T19:05:44.692Z,8.46
2023-04-25T19:08:33.215Z,8.48
2023-04-25T19:11:23.292Z,8.45
2023-04-25T19:14:12.187Z,8.49
2023-04-25T19:17:01.050Z,8.51
2023-04-25T19:19:49.647Z,8.53
2023-04-25T19:22:38.191Z,8.51
2023-04-25T19:25:27.044Z,8.58
2023-04-25T19:28:17.061Z,8.57
2023-04-25T19:31:05.696Z,8.57
2023-04-25T19:33:54.551Z,8.57
2023-04-25T19:36:44.156Z,8.54
2023-04-25T19:39:32.715Z,8.51
2023-04-25T19:42:21.642Z,8.51
2023-04-25T19:45:12.784Z,8.50
2023-04-25T19:48:03.604Z,8.15
2023-04-25T19:50:52.396Z,8.47
2023-04-25T19:53:41.168Z,8.55
2023-04-25T19:56:29.710Z,8.57
2023-04-25T19:59:18.236Z,8.51
2023-04-25T20:02:11.885Z,8.55
2023-04-25T20:05:01.382Z,8.52
2023-04-25T20:07:50.461Z,8.51
2023-04-25T20:10:39.016Z,8.51
2023-04-25T20:13:27.573Z,8.50
2023-04-25T20:16:20.386Z,8.49
2023-04-25T20:19:10.324Z,8.47
2023-04-25T20:21:58.801Z,8.48
2023-04-25T20:24:47.269Z,8.43
2023-04-25T20:27:37.791Z,8.42
2023-04-25T20:30:26.290Z,8.41
2023-04-25T20:33:14.943Z,8.38
2023-04-25T20:36:05.168Z,8.42
2023-04-25T20:38:53.959Z,8.27
2023-04-25T20:41:44.652Z,8.42
2023-04-25T20:44:33.175Z,8.41
2023-04-25T20:47:22.356Z,8.39
2023-04-25T20:50:12.192Z,8.42
2023-04-25T20:53:03.543Z,8.40
2023-04-25T20:55:52.278Z,8.38
2023-04-25T20:58:41.147Z,8.35
2023-04-25T21:01:30.215Z,8.39
2023-04-25T21:04:18.824Z,8.36
2023-04-25T21:07:07.454Z,8.32
2023-04-25T21:09:57.207Z,8.30
2023-04-25T21:12:49.362Z,8.30
2023-04-25T21:15:38.030Z,8.36
2023-04-25T21:18:27.047Z,8.37
2023-04-25T21:21:15.806Z,8.40
2023-04-25T21:24:04.688Z,8.27
2023-04-25T21:26:54.586Z,8.33
2023-04-25T21:29:43.087Z,8.33
2023-04-25T21:32:31.969Z,8.32
2023-04-25T21:35:21.431Z,8.26
2023-04-25T21:38:09.933Z,8.25
2023-04-25T21:40:58.443Z,8.15
2023-04-25T21:43:48.253Z,8.15
2023-04-25T21:46:37.264Z,8.21
2023-04-25T21:49:29.283Z,8.17
2023-04-25T21:52:20.668Z,8.26
2023-04-25T21:55:10.102Z,8.30
2023-04-25T21:57:58.574Z,8.34
2023-04-25T22:00:49.063Z,8.37
2023-04-25T22:03:37.718Z,8.34
2023-04-25T22:06:26.428Z,8.29
2023-04-25T22:09:16.277Z,8.29
2023-04-25T22:12:05.291Z,8.21
2023-04-25T22:14:53.854Z,8.25
2023-04-25T22:17:43.665Z,8.26
2023-04-25T22:20:32.367Z,8.06
2023-04-25T22:23:20.837Z,8.39
2023-04-25T22:26:09.860Z,8.37
2023-04-25T22:28:58.369Z,8.30
2023-04-25T22:31:46.984Z,8.19
2023-04-25T22:34:37.179Z,8.26
2023-04-25T22:37:25.699Z,8.25
2023-04-25T22:40:15.452Z,8.00
2023-04-25T22:43:03.946Z,8.25
2023-04-25T22:45:52.518Z,8.23
2023-04-25T22:48:41.082Z,8.15
2023-04-25T22:51:31.047Z,8.06
2023-04-25T22:54:19.566Z,8.19
2023-04-25T22:57:08.372Z,8.12
2023-04-25T22:59:57.556Z,8.07
2023-04-25T23:02:47.187Z,8.05
2023-04-25T23:05:35.875Z,8.00
2023-04-25T23:08:25.772Z,7.98
2023-04-25T23:11:14.243Z,7.96
2023-04-25T23:14:03.798Z,7.96
2023-04-25T23:16:52.571Z,7.97
2023-04-25T23:19:41.075Z,7.95
2023-04-25T23:22:29.870Z,7.90
2023-04-25T23:25:20.175Z,7.72
2023-04-25T23:28:08.634Z,7.83
2023-04-25T23:31:04.638Z,7.74
2023-04-25T23:33:53.146Z,7.73
2023-04-25T23:36:41.735Z,7.70
2023-04-25T23:39:30.580Z,7.59
2023-04-25T23:42:20.524Z,7.62
2023-04-25T23:45:10.276Z,7.60
2023-04-25T23:47:58.820Z,7.56
2023-04-25T23:50:47.306Z,7.56
2023-04-25T23:53:35.849Z,7.54
2023-04-25T23:56:24.549Z,7.52
2023-04-25T23:59:14.369Z,7.51
